Aviation Digital Data Service (ADDS)

Output produced by METARs form (1523 UTC 12 December 2018)
found at http://www.aviationweather.gov/metar/data/
 
LLBG 121450Z 28014KT 9999 -RA SCT020 SCT040 18/15 Q1019 BECMG 7000 RA FEW020TCU BKN025
TAF LLBG 121108Z 1212/1312 24015KT 9999 SCT035 BKN050 
     TEMPO 1212/1215 24020G30KT 6000 SHRA FEW025TCU BKN030 
     FM121500 27010KT 9999 SCT030 
     TEMPO 1215/1218 28015G25KT 8000 RA BKN030 
     BECMG 1219/1221 30008KT 
     BECMG 1307/1309 SCT045 TX20/1212Z TN14/1304Z
       
LLET 121450Z 33007KT CAVOK 22/05 Q1019
TAF LLET 121110Z 1212/1312 36008KT CAVOK 
     TEMPO 1223/1307 9999 SCT040 TX23/1213Z TN14/1304Z
       
LLHA 121450Z 28009G19KT 250V310 9999 FEW018 BKN047 18/14 Q1018 RMK RERA
TAF AMD LLHA 121407Z 1214/1312 28012KT 8000 SCT020 
     TEMPO 1214/1216 28015G25KT 5000 RA FEW015TCU BKN020 
     FM121600 30012KT 9999 SCT030 
     TEMPO 1216/1218 8000 RA BKN025 
     BECMG 1307/1309 SCT045 TX17/1214Z TN16/1304Z
       
LLIB 121450Z 24004KT 210V280 6000 -RA FEW007 SCT010 BKN025 14/12 Q1018
TAF AMD LLIB 121404Z 1214/1312 VRB04KT 5000 BR FEW005 SCT008 BKN020 
     TEMPO 1214/1216 22012KT 2500 SHRA BR SCT005 FEW008TCU BKN015 
     BECMG 1216/1217 30006KT 8000 NSW SCT030 
     TEMPO 1302/1307 VRB03KT 
     BECMG 1307/1309 30010KT SCT045 TX13/1214Z TN10/1304Z
       
LLOV 121450Z AUTO 28007KT CAVOK 17/05 Q1021
TAF LLOV 121109Z 1212/1312 30010KT CAVOK 
     BECMG 1221/1223 24005KT 7000 BKN025 
     PROB40 1223/1307 4000 BR SCT010 BKN015 
     BECMG 1307/1309 02006KT 9999 SCT030 TX19/1213Z TN10/1304Z
       
LLSD 121450Z 27016KT 9999 FEW025 19/14 Q1018 RERA RMK BKN090
TAF LLSD 121106Z 1212/1312 24015KT 9999 SCT035 BKN050 
     TEMPO 1212/1215 24020G30KT 7000 SHRA FEW025TCU BKN030 
     FM121500 27015KT 9999 SCT030 
     TEMPO 1215/1218 28018G28KT 5000 RA FEW020TCU BKN025 
     BECMG 1219/1221 30010KT 
     BECMG 1307/1309 SCT045 TX20/1212Z TN16/1304Z